2 Girls On Cam Spying on a young girl and her mom 2. 7:05. XY cheating wifey Bertoli CUCK HD. 24:43. SBB – wet wet wet. 1:00. Forest Nymph Deepthroat and Fucking in the Wood – Cum. 1:43. Muslim girl fucked by Hindu . 1:45 . Best cumshot ever. 0:34. Girlfriend Got Creampied Homemade. 7:11. cute babe. 0:10. Yara

Webcam Flughafen St.Gallen-Altenrhein Live-Bilder und Zeitraffer LSZR / ACH. Live aus Altenrhein. LIVE LSZR 232220Z AUTO 23005KT 210V270 9999 FEW055 10/09 Q1032 Zeitraffer heute. 2020-05-24 00:14:24 LSZR 232150Z AUTO 22003KT 9999 SCT027 SCT031 BKN049 10/09 Q1031 Destinationen ab.

Jesolo Live Cam Livecam. Livecam. Livecam 1 Livecam 2. Anemometrische Daten. 24/05/20 Erhebungsdatum; 13:15:04 Erhebungsuhrzeit; 18,4 Lufttemperatur (°C) Sud-Est Windrichtung (m/s) 6,8 durchschnittliche Windgeschwindigkeit (m/s) 7,8 höchste erreichte Windgeschwindigkeit (m/s) Luftdruck (mBar) Informationen anfordern Ich stimme der Weiterverarbeitung meiner. Jesolo ist für seinen feinen, 15 Kilometer langen Sandstrand bekannt und lockt jedes Jahr rund 4.5 Millionen Besucher an.

The canton of St. Gallen is situated in northeastern Switzerland. It is also called canton of St Gall (Kanton St. Gallen; canton de Saint-Gall). The administrative division borders the lakes Constance (Bodensee) in the north, the Lake Obersee in the southwest and the Lake Walensee in the southeast. The canton’s landscapes vary from the plains of the Rhine Valley in the east and the.

Bete Gott in persönlichen Umbruchsituationen an | Wilhelm DiegelSt. Gallen: Baustellen-Webcam – Webcam Galore – Diese Webcam St. Gallen mit dem Thema Baustellen wurde am 11.10.2017 eingetragen und wird von Construction Camera betrieben. Sie wurde bisher 111 mal angeklickt. Sollte die Webcam oder der Link dorthin defekt sein, melden Sie dieses bitte hier.Weiterhin haben Sie hier die Möglichkeit, diese Webcam zu myCams hinzuzufügen.

Webcam St. Gallen / Schweiz / Schweiz mit aktuellen live-Bildern

Egyptian Hidden Cam Sex Egyptian floozy fucks her horny husband. egyptian arab hiddencam hardcore, , Uploaded: 48 months ago Tube: XHamster. 01:29 waterproof. amateur grannies hidden cams, , Uploaded: 27 months ago Tube: Ice Porn. 08:00 Teen cutie Blair Williams fucks hard. blonde blowjob hidden cams reality, , Uploaded: 63 months ago Tube: XHamster. 55:05 BIG BROTHER 4!!!! amateur

St. Gallen Styria: Webcams – Webcam – Austria – Live pictures – Livecam – Cams – Weather camera

Webcams in St. Gallen (Zürich Region): Übersicht über alle Webcams und Livecams

9027, St. Gallen (Eastern Switzerland / FL) Cities & Villages Blick auf das Kloster und auf den Klosterplatz St. Gallen – Schweiz (UNESCO-Weltkulturerbe).

Resi Auf Der Alm NÖN.at Neulengbach 83-Jähriger Laabener als Senner auf der Alm im Einsatz – 83 Jahre, Risikogruppe – dennoch lässt sich Senner Roman Pflügler von der Coronakrise nicht aufhalten, den Almauftrieb auf. Jesolo Live Cam Livecam. Livecam. Livecam 1 Livecam 2. Anemometrische Daten. 24/05/20 Erhebungsdatum; 13:15:04 Erhebungsuhrzeit; 18,4 Lufttemperatur (°C) Sud-Est Windrichtung (m/s) 6,8 durchschnittliche Windgeschwindigkeit (m/s)

Webcam St. Gallen / Schweiz / Schweiz mit aktuellen live-Bildern

St Gallen Live Cam Veröffentlicht von admin am Mai 11, 2020. Nach den Demonstrationen gegen die Corona-Massnahmen des Bundes in vier Deutschschweizer Städten am Samstag, haben die. BERN – In Bern und St. Gallen haben am Samstag mindestens zweihundert Menschen gegen die Corona-Verbote des Bundesrates. Kanton St. Gallen bietet wieder Fahrprüfungen an. Grosser Rat Thurgau segnet 70.

Alle Webcams St. Gallen: Cams St. Gallen – Livecams Wetterkameras. Es wurden %count% Einträge gefunden. Bitte Suche verfeinern.

Alle Webcams St. Gallen: Cams St. Gallen – Livecams Wetterkameras. Es wurden %count% Einträge gefunden. Bitte Suche verfeinern.

Bad Ragaz – Blick auf Bad Ragaz Ein schöner Blick auf den Ort Bad Ragaz im Kanton St. Gallen. Livestream ansehen. Betreiber: feratel media technologies AG – Gelistet: May 29, 2008 – Hits: 17814 Link defekt? – zu myCams hinzufügen. Bad Ragaz – Laufböden-Zanuz Eine Live-Ansicht aus Bad Ragaz. Livestream ansehen . Betreiber: feratel media technologies AG – Gelistet: Mar 27, 2017 – Hits: 30.

Kantonsspital St.Gallen Departement Bau und Raum Haus 38 Rorschacher Strasse 95 CH-9007 St.Gallen Telefon: +41 71 494 22 16 [email protected] Departement Bau und Raum. Über die gesamte Seite suchen Suche schliessen. Wir verwenden Cookies und Tracking-Technologien gemäss unserer Datenschutz- bestimmungen, um Ihnen die bestmögliche Web-Erfahrung zu ermöglichen. Zur.

Webcam Flughafen St.Gallen-Altenrhein Live-Bilder und Zeitraffer LSZR / ACH. Live aus Altenrhein. LIVE LSZR 232220Z AUTO 23005KT 210V270 9999 FEW055 10/09 Q1032 Zeitraffer heute. 2020-05-24 00:14:24 LSZR 232150Z AUTO 22003KT 9999 SCT027 SCT031 BKN049 10/09 Q1031 Destinationen ab.

Webcam St.Gallen. Diese Live Webcam steht in St.Gallen in der Schweiz. Die Live Webcam zeigt die Sicht auf den Klosterplatz und die Stiftskirche.St. Gallen ist eine Gemeinde und die Hauptstadt des Kantons St.Gallen in der östlichen Schweiz. Eine Unesco-Welterbe-Stadt, ein See der 3 Länder verbindet und im Norden der Schweiz das \\"Happy End\\" des Landes bildet, sind die tragenden.